createdAt,value
2022-09-28T00:01:23.840Z,95637.72
2022-09-28T00:03:53.156Z,95630.94
2022-09-28T00:06:24.753Z,95614.25
2022-09-28T00:08:51.901Z,95630.34
2022-09-28T00:11:23.422Z,95600.38
2022-09-28T00:13:52.363Z,95599.19
2022-09-28T00:16:21.488Z,95598.56
2022-09-28T00:18:51.352Z,95596.91
2022-09-28T00:21:24.647Z,95590.44
2022-09-28T00:24:11.910Z,95594.03
2022-09-28T00:26:42.775Z,95581.44
2022-09-28T00:29:18.918Z,95585.50
2022-09-28T00:31:52.484Z,95569.09
2022-09-28T00:34:22.641Z,95579.63
2022-09-28T00:36:49.444Z,95561.41
2022-09-28T00:39:19.228Z,95569.25
2022-09-28T00:41:48.559Z,95550.56
2022-09-28T00:44:27.213Z,95557.97
2022-09-28T00:47:02.074Z,95554.50
2022-09-28T00:49:37.136Z,95553.44
2022-09-28T00:52:06.415Z,95543.94
2022-09-28T00:54:36.489Z,95543.06
2022-09-28T00:57:04.073Z,95529.78
2022-09-28T00:59:33.553Z,95523.34
2022-09-28T01:02:04.512Z,95526.19
2022-09-28T01:04:31.297Z,95522.72
2022-09-28T01:06:59.173Z,95527.09
2022-09-28T01:09:29.722Z,95505.13
2022-09-28T01:11:58.638Z,95515.81
2022-09-28T01:14:25.838Z,95521.84
2022-09-28T01:17:14.872Z,95509.94
2022-09-28T01:20:14.416Z,95511.75
2022-09-28T01:22:43.651Z,95496.53
2022-09-28T01:25:25.097Z,95501.94
2022-09-28T01:28:04.371Z,95496.50
2022-09-28T01:30:46.234Z,95481.94
2022-09-28T01:33:22.525Z,95477.41
2022-09-28T01:36:27.921Z,95475.75
2022-09-28T01:39:18.017Z,95463.72
2022-09-28T01:41:48.548Z,95473.06
2022-09-28T01:44:18.856Z,95452.72
2022-09-28T01:46:49.955Z,95450.19
2022-09-28T01:49:21.617Z,95442.19
2022-09-28T01:51:58.998Z,95439.94
2022-09-28T01:54:37.888Z,95433.94
2022-09-28T01:57:26.570Z,95433.31
2022-09-28T02:00:04.030Z,95420.66
2022-09-28T02:02:45.471Z,95415.88
2022-09-28T02:05:25.280Z,95409.38
2022-09-28T02:08:07.298Z,95400.94
2022-09-28T02:10:41.493Z,95389.53
2022-09-28T02:13:20.571Z,95401.56
2022-09-28T02:16:14.441Z,95374.19
2022-09-28T02:18:42.081Z,95382.00
2022-09-28T02:21:20.238Z,95371.47
2022-09-28T02:24:01.054Z,95370.13
2022-09-28T02:26:32.586Z,95366.19
2022-09-28T02:28:59.428Z,95374.63
2022-09-28T02:31:27.139Z,95351.00
2022-09-28T02:33:56.899Z,95364.09
2022-09-28T02:36:28.622Z,95368.00
2022-09-28T02:39:02.259Z,95362.28
2022-09-28T02:41:53.834Z,95349.50
2022-09-28T02:44:35.560Z,95355.34
2022-09-28T02:47:23.140Z,95359.13
2022-09-28T02:50:20.694Z,95347.53
2022-09-28T02:53:08.065Z,95347.09
2022-09-28T02:55:55.618Z,95341.53
2022-09-28T02:58:37.287Z,95329.50
2022-09-28T03:01:24.171Z,95338.22
2022-09-28T03:03:56.790Z,95332.22
2022-09-28T03:06:37.521Z,95317.75
2022-09-28T03:09:13.076Z,95322.41
2022-09-28T03:12:06.654Z,95319.56
2022-09-28T03:14:33.428Z,95323.34
2022-09-28T03:17:02.963Z,95320.16
2022-09-28T03:19:33.583Z,95325.88
2022-09-28T03:22:00.729Z,95323.91
2022-09-28T03:24:29.474Z,95316.69
2022-09-28T03:26:58.248Z,95293.69
2022-09-28T03:29:27.179Z,95332.34
2022-09-28T03:31:55.980Z,95319.56
2022-09-28T03:34:24.902Z,95327.38
2022-09-28T03:36:53.878Z,95325.13
2022-09-28T03:39:20.359Z,95319.88
2022-09-28T03:41:46.875Z,95324.69
2022-09-28T03:44:13.427Z,95321.06
2022-09-28T03:46:42.508Z,95319.88
2022-09-28T03:49:09.814Z,95319.13
2022-09-28T03:51:36.579Z,95312.78
2022-09-28T03:54:03.625Z,95301.81
2022-09-28T03:56:30.279Z,95307.97
2022-09-28T03:58:59.044Z,95306.47
2022-09-28T04:01:25.761Z,95304.22
2022-09-28T04:03:56.040Z,95302.72
2022-09-28T04:06:26.241Z,95300.63
2022-09-28T04:08:53.115Z,95290.81
2022-09-28T04:11:21.969Z,95290.22
2022-09-28T04:13:50.169Z,95276.06
2022-09-28T04:16:17.924Z,95283.91
2022-09-28T04:18:44.589Z,95285.56
2022-09-28T04:21:13.809Z,95276.81
2022-09-28T04:23:40.564Z,95271.13
2022-09-28T04:26:18.719Z,95274.41
2022-09-28T04:29:06.817Z,95271.41
2022-09-28T04:31:50.898Z,95267.34
2022-09-28T04:34:20.437Z,95267.50
2022-09-28T04:36:50.156Z,95281.34
2022-09-28T04:39:18.263Z,95266.63
2022-09-28T04:41:50.557Z,95272.00
2022-09-28T04:44:17.169Z,95260.88
2022-09-28T04:46:43.760Z,95257.59
2022-09-28T04:49:13.114Z,95242.38
2022-09-28T04:51:39.671Z,95251.84
2022-09-28T04:54:06.181Z,95257.28
2022-09-28T04:56:32.763Z,95240.28
2022-09-28T04:58:59.316Z,95237.41
2022-09-28T05:01:28.296Z,95229.88
2022-09-28T05:03:57.947Z,95236.66
2022-09-28T05:06:28.596Z,95239.03
2022-09-28T05:08:57.382Z,95236.78
2022-09-28T05:11:24.143Z,95234.53
2022-09-28T05:13:50.737Z,95238.91
2022-09-28T05:16:22.342Z,95249.41
2022-09-28T05:18:48.926Z,95241.44
2022-09-28T05:21:15.992Z,95260.09
2022-09-28T05:23:47.400Z,95254.69
2022-09-28T05:26:14.415Z,95259.66
2022-09-28T05:28:40.968Z,95259.47
2022-09-28T05:31:12.773Z,95251.19
2022-09-28T05:33:41.727Z,95243.22
2022-09-28T05:36:11.323Z,95253.44
2022-09-28T05:38:38.025Z,95242.88
2022-09-28T05:41:09.329Z,95247.84
2022-09-28T05:43:40.707Z,95243.34
2022-09-28T05:46:12.492Z,95237.94
2022-09-28T05:48:39.571Z,95252.25
2022-09-28T05:51:06.355Z,95237.47
2022-09-28T05:53:37.539Z,95257.19
2022-09-28T05:56:06.579Z,95257.09
2022-09-28T05:58:36.621Z,95257.81
2022-09-28T06:01:03.251Z,95252.28
2022-09-28T06:03:29.864Z,95258.66
2022-09-28T06:05:56.452Z,95251.72
2022-09-28T06:08:23.363Z,95259.59
2022-09-28T06:10:52.156Z,95261.91
2022-09-28T06:13:21.089Z,95261.63
2022-09-28T06:15:49.967Z,95259.66
2022-09-28T06:18:18.996Z,95261.81
2022-09-28T06:20:45.615Z,95267.06
2022-09-28T06:23:14.867Z,95270.38
2022-09-28T06:25:41.919Z,95272.03
2022-09-28T06:28:14.255Z,95273.22
2022-09-28T06:30:44.049Z,95277.91
2022-09-28T06:33:13.737Z,95273.22
2022-09-28T06:35:42.952Z,95277.44
2022-09-28T06:38:11.941Z,95279.69
2022-09-28T06:40:41.081Z,95279.25
2022-09-28T06:43:15.097Z,95283.47
2022-09-28T06:45:50.728Z,95285.88
2022-09-28T06:48:17.570Z,95287.97
2022-09-28T06:50:47.548Z,95281.81
2022-09-28T06:53:17.671Z,95295.50
2022-09-28T06:55:48.242Z,95290.84
2022-09-28T06:58:22.311Z,95297.63
2022-09-28T07:00:51.531Z,95299.84
2022-09-28T07:03:21.641Z,95308.28
2022-09-28T07:05:56.322Z,95306.63
2022-09-28T07:08:25.998Z,95305.88
2022-09-28T07:10:57.198Z,95304.97
2022-09-28T07:16:15.399Z,95309.00
2022-09-28T07:18:46.486Z,95320.75
2022-09-28T07:21:27.847Z,95315.00
2022-09-28T07:23:55.158Z,95320.41
2022-09-28T07:26:25.831Z,95328.84
2022-09-28T07:28:52.669Z,95321.91
2022-09-28T07:31:19.284Z,95327.00
2022-09-28T07:33:49.778Z,95330.91
2022-09-28T07:36:20.983Z,95318.13
2022-09-28T07:38:49.859Z,95321.56
2022-09-28T07:41:22.530Z,95311.91
2022-09-28T07:43:51.812Z,95314.31
2022-09-28T07:46:18.378Z,95326.78
2022-09-28T07:48:47.968Z,95331.47
2022-09-28T07:51:19.770Z,95343.34
2022-09-28T07:53:48.594Z,95356.47
2022-09-28T07:56:17.480Z,95371.72
2022-09-28T07:58:44.161Z,95379.09
2022-09-28T08:01:11.977Z,95389.78
2022-09-28T08:03:39.385Z,95390.81
2022-09-28T08:06:09.860Z,95386.44
2022-09-28T08:08:37.154Z,95380.25
2022-09-28T08:11:05.849Z,95382.53
2022-09-28T08:13:34.959Z,95380.41
2022-09-28T08:16:02.500Z,95383.38
2022-09-28T08:18:29.396Z,95382.81
2022-09-28T08:21:14.528Z,95386.44
2022-09-28T08:23:45.668Z,95397.91
2022-09-28T08:26:15.585Z,95390.91
2022-09-28T08:28:43.482Z,95394.22
2022-09-28T08:31:13.130Z,95384.88
2022-09-28T08:33:41.668Z,95384.28
2022-09-28T08:36:10.180Z,95378.03
2022-09-28T08:38:36.748Z,95371.41
2022-09-28T08:41:27.477Z,95376.66
2022-09-28T08:44:14.382Z,95378.88
2022-09-28T08:46:45.207Z,95373.19
2022-09-28T08:49:26.171Z,95379.66
2022-09-28T08:52:01.159Z,95379.66
2022-09-28T08:54:36.709Z,95385.63
2022-09-28T08:57:19.571Z,95389.31
2022-09-28T08:59:53.024Z,95386.06
2022-09-28T09:02:29.512Z,95395.97
2022-09-28T09:04:57.778Z,95398.31
2022-09-28T09:07:30.170Z,95412.28
2022-09-28T09:10:08.914Z,95402.63
2022-09-28T09:12:47.596Z,95406.25
2022-09-28T09:15:40.755Z,95413.72
2022-09-28T09:18:26.310Z,95409.38
2022-09-28T09:20:58.575Z,95413.88
2022-09-28T09:23:28.494Z,95409.56
2022-09-28T09:26:03.664Z,95411.34
2022-09-28T09:28:39.405Z,95402.50
2022-09-28T09:31:24.149Z,95402.59
2022-09-28T09:33:59.520Z,95405.91
2022-09-28T09:36:29.387Z,95404.72
2022-09-28T09:39:15.265Z,95405.53
2022-09-28T09:42:01.868Z,95410.94
2022-09-28T09:44:31.294Z,95405.78
2022-09-28T09:47:18.842Z,95413.72
2022-09-28T09:49:47.630Z,95407.53
2022-09-28T09:52:28.451Z,95408.16
2022-09-28T09:55:29.859Z,95411.00
2022-09-28T09:58:02.760Z,95397.25
2022-09-28T10:00:29.929Z,95406.38
2022-09-28T10:03:00.251Z,95394.41
2022-09-28T10:05:33.289Z,95407.28
2022-09-28T10:08:08.930Z,95410.19
2022-09-28T10:10:49.623Z,95411.81
2022-09-28T10:13:18.569Z,95411.22
2022-09-28T10:15:48.072Z,95413.13
2022-09-28T10:18:19.109Z,95406.38
2022-09-28T10:20:48.954Z,95403.72
2022-09-28T10:23:29.531Z,95403.13
2022-09-28T10:26:15.188Z,95404.75
2022-09-28T10:28:59.027Z,95408.81
2022-09-28T10:31:50.054Z,95403.53
2022-09-28T10:34:28.003Z,95404.91
2022-09-28T10:37:05.482Z,95411.53
2022-09-28T10:39:32.003Z,95407.34
2022-09-28T10:42:03.620Z,95422.44
2022-09-28T10:44:34.294Z,95412.50
2022-09-28T10:47:08.022Z,95417.31
2022-09-28T10:49:46.997Z,95407.28
2022-09-28T10:52:32.159Z,95417.50
2022-09-28T10:54:59.276Z,95406.00
2022-09-28T10:57:36.867Z,95406.47
2022-09-28T11:00:08.206Z,95400.56
2022-09-28T11:02:40.197Z,95400.28
2022-09-28T11:05:07.932Z,95399.16
2022-09-28T11:07:46.088Z,95406.59
2022-09-28T11:10:27.536Z,95402.56
2022-09-28T11:13:00.204Z,95394.69
2022-09-28T11:15:33.488Z,95396.81
2022-09-28T11:18:38.891Z,95409.28
2022-09-28T11:21:16.751Z,95418.94
2022-09-28T11:24:21.533Z,95409.19
2022-09-28T11:26:52.947Z,95411.28
2022-09-28T11:29:37.190Z,95427.44
2022-09-28T11:32:07.074Z,95417.13
2022-09-28T11:34:58.542Z,95412.50
2022-09-28T11:37:57.206Z,95399.44
2022-09-28T11:40:39.160Z,95403.81
2022-09-28T11:43:24.162Z,95398.53
2022-09-28T11:46:16.329Z,95407.88
2022-09-28T11:48:54.091Z,95424.03
2022-09-28T11:51:32.986Z,95435.41
2022-09-28T11:54:14.330Z,95434.06
2022-09-28T11:56:48.635Z,95438.31
2022-09-28T11:59:27.693Z,95425.91
2022-09-28T12:02:16.968Z,95429.72
2022-09-28T12:05:02.999Z,95427.28
2022-09-28T12:07:46.159Z,95425.34
2022-09-28T12:10:34.518Z,95432.50
2022-09-28T12:13:10.243Z,95440.09
2022-09-28T12:16:13.292Z,95448.19
2022-09-28T12:18:46.835Z,95440.44
2022-09-28T12:21:33.002Z,95443.25
2022-09-28T12:24:13.349Z,95445.91
2022-09-28T12:27:12.717Z,95434.59
2022-09-28T12:29:52.817Z,95435.06
2022-09-28T12:32:31.440Z,95447.00
2022-09-28T12:35:02.280Z,95438.91
2022-09-28T12:37:45.253Z,95448.16
2022-09-28T12:40:35.295Z,95449.97
2022-09-28T12:43:14.140Z,95451.25
2022-09-28T12:46:11.569Z,95444.66
2022-09-28T12:51:54.707Z,95445.06
2022-09-28T12:54:42.465Z,95442.34
2022-09-28T12:57:31.581Z,95444.09
2022-09-28T13:00:12.094Z,95451.00
2022-09-28T13:03:15.945Z,95439.94
2022-09-28T13:05:48.440Z,95445.94
2022-09-28T13:08:36.708Z,95436.19
2022-09-28T13:11:08.592Z,95440.19
2022-09-28T13:13:44.917Z,95438.13
2022-09-28T13:16:21.600Z,95439.63
2022-09-28T13:19:17.292Z,95444.09
2022-09-28T13:21:56.488Z,95443.84
2022-09-28T13:24:32.619Z,95441.13
2022-09-28T13:27:05.632Z,95442.94
2022-09-28T13:29:35.115Z,95445.00
2022-09-28T13:32:03.456Z,95442.88
2022-09-28T13:34:33.551Z,95440.47
2022-09-28T13:37:18.126Z,95453.16
2022-09-28T13:39:44.594Z,95450.31
2022-09-28T13:42:23.430Z,95457.41
2022-09-28T13:44:49.919Z,95455.75
2022-09-28T13:47:53.095Z,95463.16
2022-09-28T13:50:44.396Z,95460.16
2022-09-28T13:53:30.084Z,95447.94
2022-09-28T13:56:17.557Z,95453.97
2022-09-28T13:58:49.963Z,95449.16
2022-09-28T14:01:32.428Z,95449.31
2022-09-28T14:04:20.746Z,95465.13
2022-09-28T14:06:55.551Z,95464.38
2022-09-28T14:09:31.685Z,95464.66
2022-09-28T14:11:59.486Z,95457.56
2022-09-28T14:14:46.675Z,95458.63
2022-09-28T14:17:19.191Z,95456.22
2022-09-28T14:19:53.014Z,95456.84
2022-09-28T14:22:54.669Z,95458.19
2022-09-28T14:25:27.590Z,95462.38
2022-09-28T14:28:01.465Z,95449.88
2022-09-28T14:30:44.739Z,95453.97
2022-09-28T14:33:20.521Z,95446.75
2022-09-28T14:36:04.791Z,95443.88
2022-09-28T14:39:08.270Z,95439.22
2022-09-28T14:41:40.620Z,95418.56
2022-09-28T14:44:09.421Z,95436.50
2022-09-28T14:46:48.643Z,95422.63
2022-09-28T14:49:19.227Z,95445.06
2022-09-28T14:51:48.585Z,95447.03
2022-09-28T14:54:39.409Z,95448.53
2022-09-28T14:57:17.179Z,95447.19
2022-09-28T14:59:46.205Z,95449.91
2022-09-28T15:02:15.608Z,95447.03
2022-09-28T15:05:00.050Z,95446.44
2022-09-28T15:07:43.509Z,95438.47
2022-09-28T15:10:33.271Z,95440.09
2022-09-28T15:13:03.020Z,95448.09
2022-09-28T15:15:43.588Z,95446.28
2022-09-28T15:18:19.244Z,95450.03
2022-09-28T15:20:48.656Z,95448.41
2022-09-28T15:23:32.742Z,95452.63
2022-09-28T15:26:01.543Z,95444.31
2022-09-28T15:28:30.572Z,95449.59
2022-09-28T15:31:02.020Z,95451.56
2022-09-28T15:33:52.673Z,95455.75
2022-09-28T15:36:43.233Z,95461.19
2022-09-28T15:39:18.780Z,95458.19
2022-09-28T15:41:47.661Z,95460.59
2022-09-28T15:44:30.243Z,95469.31
2022-09-28T15:47:27.320Z,95481.34
2022-09-28T15:49:59.290Z,95477.13
2022-09-28T15:52:35.364Z,95479.06
2022-09-28T15:55:18.431Z,95485.88
2022-09-28T15:57:44.995Z,95473.81
2022-09-28T16:00:20.569Z,95486.72
2022-09-28T16:03:08.984Z,95492.13
2022-09-28T16:05:52.491Z,95490.22
2022-09-28T16:08:36.964Z,95493.91
2022-09-28T16:11:27.807Z,95492.16
2022-09-28T16:14:06.319Z,95497.59
2022-09-28T16:16:46.556Z,95499.09
2022-09-28T16:19:37.752Z,95503.44
2022-09-28T16:22:07.795Z,95510.81
2022-09-28T16:24:39.132Z,95498.88
2022-09-28T16:27:27.605Z,95500.56
2022-09-28T16:30:16.525Z,95515.03
2022-09-28T16:32:56.492Z,95516.38
2022-09-28T16:35:31.844Z,95528.91
2022-09-28T16:38:22.950Z,95530.19
2022-09-28T16:40:53.980Z,95537.47
2022-09-28T16:43:29.522Z,95543.28
2022-09-28T16:46:00.997Z,95536.50
2022-09-28T16:48:30.015Z,95538.06
2022-09-28T16:50:57.664Z,95530.25
2022-09-28T16:53:44.151Z,95537.97
2022-09-28T16:56:12.451Z,95539.94
2022-09-28T16:58:39.178Z,95543.59
2022-09-28T17:01:09.831Z,95547.63
2022-09-28T17:03:39.872Z,95551.13
2022-09-28T17:06:06.773Z,95555.00
2022-09-28T17:08:35.568Z,95560.03
2022-09-28T17:11:24.460Z,95565.69
2022-09-28T17:13:51.949Z,95568.00
2022-09-28T17:16:28.147Z,95575.09
2022-09-28T17:19:06.007Z,95569.41
2022-09-28T17:21:32.510Z,95573.84
2022-09-28T17:23:59.172Z,95580.06
2022-09-28T17:26:30.752Z,95580.06
2022-09-28T17:29:01.862Z,95579.91
2022-09-28T17:31:31.035Z,95577.00
2022-09-28T17:33:58.250Z,95593.13
2022-09-28T17:36:27.098Z,95596.09
2022-09-28T17:38:53.648Z,95594.91
2022-09-28T17:41:21.171Z,95607.09
2022-09-28T17:43:48.695Z,95602.84
2022-09-28T17:46:25.082Z,95603.03
2022-09-28T17:48:54.169Z,95611.72
2022-09-28T17:51:25.674Z,95609.13
2022-09-28T17:53:54.542Z,95609.38
2022-09-28T17:56:23.297Z,95609.28
2022-09-28T17:58:55.083Z,95599.00
2022-09-28T18:01:21.656Z,95616.25
2022-09-28T18:03:48.183Z,95611.16
2022-09-28T18:06:20.240Z,95620.41
2022-09-28T18:08:49.128Z,95623.56
2022-09-28T18:11:17.384Z,95624.50
2022-09-28T18:13:46.001Z,95620.03
2022-09-28T18:16:14.157Z,95633.19
2022-09-28T18:18:43.158Z,95632.28
2022-09-28T18:21:09.794Z,95629.91
2022-09-28T18:23:37.432Z,95632.88
2022-09-28T18:26:05.258Z,95625.31
2022-09-28T18:28:32.167Z,95632.06
2022-09-28T18:30:59.012Z,95621.78
2022-09-28T18:33:29.377Z,95634.94
2022-09-28T18:35:58.257Z,95626.31
2022-09-28T18:38:27.254Z,95636.66
2022-09-28T18:40:54.902Z,95631.09
2022-09-28T18:43:23.945Z,95637.84
2022-09-28T18:45:50.659Z,95641.06
2022-09-28T18:48:19.270Z,95645.50
2022-09-28T18:50:45.825Z,95642.69
2022-09-28T18:53:12.420Z,95653.72
2022-09-28T18:55:45.151Z,95663.13
2022-09-28T18:58:12.912Z,95662.69
2022-09-28T19:00:41.917Z,95656.66
2022-09-28T19:03:11.144Z,95663.06
2022-09-28T19:05:44.151Z,95670.69
2022-09-28T19:08:10.799Z,95671.88
2022-09-28T19:10:39.834Z,95663.19
2022-09-28T19:13:06.814Z,95662.06
2022-09-28T19:15:34.592Z,95662.97
2022-09-28T19:18:01.689Z,95669.31
2022-09-28T19:20:30.535Z,95656.25
2022-09-28T19:22:57.203Z,95653.88
2022-09-28T19:25:29.084Z,95648.97
2022-09-28T19:27:55.669Z,95656.41
2022-09-28T19:30:22.573Z,95666.81
2022-09-28T19:32:49.102Z,95658.78
2022-09-28T19:35:15.685Z,95670.88
2022-09-28T19:37:47.072Z,95667.84
2022-09-28T19:40:13.661Z,95658.91
2022-09-28T19:42:43.065Z,95664.31
2022-09-28T19:45:10.846Z,95660.25
2022-09-28T19:47:37.526Z,95657.75
2022-09-28T19:50:05.513Z,95653.13
2022-09-28T19:52:32.028Z,95649.78
2022-09-28T19:54:59.967Z,95653.53
2022-09-28T19:57:29.231Z,95640.28
2022-09-28T20:00:01.660Z,95654.13
2022-09-28T20:02:28.791Z,95643.22
2022-09-28T20:04:55.451Z,95642.16
2022-09-28T20:07:21.951Z,95645.63
2022-09-28T20:09:48.540Z,95655.34
2022-09-28T20:12:17.592Z,95650.69
2022-09-28T20:14:48.753Z,95646.47
2022-09-28T20:17:19.666Z,95648.25
2022-09-28T20:19:46.197Z,95653.97
2022-09-28T20:22:12.729Z,95639.81
2022-09-28T20:24:39.269Z,95646.28
2022-09-28T20:27:05.818Z,95640.13
2022-09-28T20:29:33.365Z,95643.91
2022-09-28T20:32:00.543Z,95649.84
2022-09-28T20:34:27.625Z,95655.44
2022-09-28T20:36:56.465Z,95647.63
2022-09-28T20:39:25.275Z,95645.91
2022-09-28T20:41:57.459Z,95631.50
2022-09-28T20:44:26.294Z,95633.34
2022-09-28T20:46:56.674Z,95640.59
2022-09-28T20:49:27.539Z,95642.88
2022-09-28T20:51:56.959Z,95635.84
2022-09-28T20:54:26.215Z,95645.31
2022-09-28T20:56:52.770Z,95638.53
2022-09-28T20:59:23.085Z,95651.06
2022-09-28T21:01:49.828Z,95645.56
2022-09-28T21:04:16.531Z,95639.84
2022-09-28T21:06:45.911Z,95651.06
2022-09-28T21:09:12.499Z,95644.19
2022-09-28T21:11:44.170Z,95634.13
2022-09-28T21:14:13.285Z,95639.09
2022-09-28T21:16:42.557Z,95642.75
2022-09-28T21:19:09.096Z,95646.19
2022-09-28T21:21:36.016Z,95648.03
2022-09-28T21:24:03.098Z,95643.19
2022-09-28T21:26:31.294Z,95649.22
2022-09-28T21:29:06.144Z,95647.41
2022-09-28T21:31:45.695Z,95644.47
2022-09-28T21:34:14.984Z,95649.44
2022-09-28T21:36:44.349Z,95642.69
2022-09-28T21:39:11.020Z,95630.59
2022-09-28T21:41:37.696Z,95635.00
2022-09-28T21:44:04.277Z,95623.69
2022-09-28T21:46:34.532Z,95613.78
2022-09-28T21:49:02.706Z,95618.75
2022-09-28T21:51:29.806Z,95617.72
2022-09-28T21:53:59.395Z,95621.34
2022-09-28T21:56:30.466Z,95625.06
2022-09-28T21:58:59.209Z,95620.16
2022-09-28T22:01:26.173Z,95600.84
2022-09-28T22:03:56.352Z,95617.72
2022-09-28T22:06:25.705Z,95609.06
2022-09-28T22:08:54.996Z,95611.16
2022-09-28T22:11:23.834Z,95598.34
2022-09-28T22:13:51.680Z,95602.53
2022-09-28T22:16:22.881Z,95602.09
2022-09-28T22:18:53.015Z,95601.66
2022-09-28T22:21:22.859Z,95615.25
2022-09-28T22:23:52.067Z,95608.63
2022-09-28T22:26:24.741Z,95619.19
2022-09-28T22:28:53.249Z,95618.75
2022-09-28T22:31:22.822Z,95612.41
2022-09-28T22:33:52.139Z,95611.78
2022-09-28T22:36:20.022Z,95615.25
2022-09-28T22:38:47.457Z,95616.56
2022-09-28T22:41:16.345Z,95620.47
2022-09-28T22:43:43.831Z,95616.91
2022-09-28T22:46:16.618Z,95617.00
2022-09-28T22:48:54.870Z,95615.94
2022-09-28T22:51:28.192Z,95617.84
2022-09-28T22:53:54.987Z,95606.25
2022-09-28T22:56:21.563Z,95608.53
2022-09-28T22:58:48.132Z,95610.78
2022-09-28T23:01:21.264Z,95605.06
2022-09-28T23:03:51.349Z,95599.31
2022-09-28T23:06:22.645Z,95610.34
2022-09-28T23:08:52.636Z,95603.53
2022-09-28T23:11:21.507Z,95606.25
2022-09-28T23:13:55.457Z,95609.28
2022-09-28T23:16:24.922Z,95585.75
2022-09-28T23:18:52.335Z,95586.19
2022-09-28T23:21:21.578Z,95580.88
2022-09-28T23:23:59.039Z,95580.72
2022-09-28T23:26:29.412Z,95574.97
2022-09-28T23:28:59.018Z,95575.34
2022-09-28T23:31:28.668Z,95580.88
2022-09-28T23:34:05.787Z,95576.22
2022-09-28T23:36:33.741Z,95573.66
2022-09-28T23:39:00.568Z,95570.97
2022-09-28T23:41:29.673Z,95565.34
2022-09-28T23:43:58.723Z,95560.09
2022-09-28T23:46:28.127Z,95567.44
2022-09-28T23:48:57.455Z,95562.91
2022-09-28T23:51:24.413Z,95560.53
2022-09-28T23:53:50.947Z,95553.72
2022-09-28T23:56:17.497Z,95551.66
2022-09-28T23:58:46.222Z,95562.31
